LFKC

Calvi-Sainte-Catherine Airport

Airport
ICAO code
LFKC
IATA Code
CLY
Summary
ICAO Region
EUR
ICAO Territory
Location

, Corse

Serving
Calvi
Elevation
209 ft
Coordinates
42° 31' 51" N , 8° 47' 35" E
Metar
Observation
LFKC 280330Z AUTO 18006KT 9999 BKN037 BKN054 BKN130 09/04 Q1018 NOSIG
Station
Calvi
Date/Time
2022-11-28 03:30:00
Wind direction
180°
Wind speed
06 kts
Lowest cloud amount
broken clouds
Temperature
9°C
Dew point
4°C
Humidity
70%
QNH
1018 hPa
Weather condition
n/a

Runways

Designator Length Width Surface Rops
18/36 2310 40 CON Yes/Yes

Airport map

Aerial View

SKYbrary Partners:

Safety knowledge contributed by: